Aviation Digital Data Service (ADDS)

Output produced by METARs form (0237 UTC 16 July 2019)
found at http://www.aviationweather.gov/metar/data/
 
Forecast for: AGGM (MUNDA/NEW GEORGI, SB)
Text: TAF AGGM 152310Z 1600/1624 09010KT 9999 SCT019
Forecast period: 0000 UTC 16 July 2019 to 0000 UTC 17 July 2019
Forecast type: FROM: standard forecast or significant change
Winds: from the E (90 degrees) at 12 MPH (10 knots; 5.1 m/s)
Visibility: 6 or more miles 10+ km)
Ceiling: at least 12,000 feet AGL
Clouds: scattered clouds at 1900 feet AGL
Weather: no significant weather forecast for this period
Text: PROB30 INTER 1602/1607 5000 TSSH BKN016 FEW018CB Q 1011 1009 1008 1010
Forecast period: 0200 to 0700 UTC 16 July 2019
Forecast type: TEMPORARY: The following changes expected for less than half the time period
Visibility: 3 miles (5 km)
Ceiling: 1600 feet AGL
Clouds: broken clouds at 1600 feet AGL
few clouds at 1800 feet AGL
Weather: SH TS  (showers, thunderstorm)